Erica Xii — ZCDZ4 — position and weather

sailwx.info

Track history (hours):
 
Tides and Currents Weather Stations Pressure Air Temp Water Temp Dewpoint Dewpoint Depression Visibility Wind Speed Wind Dir Waves Ship Positions

Erica Xii

Last reported at 2015-Jul-04 03:26 UTC. Time now 2015-Jul-06 15:36 UTC.
Position N 36°50' E 026°17'.

Length 53 m; draft 4.8 m.

Type: Sailing vessel. MMSI: 310570000.

Date/timePositionNaut miles runAvg speedWind from/ knotsBaromVisibWave heightAir tempDewpointWater temp
2015-Jul-04 03:26N 36°50' E 026°17'910.5
2015-Jul-04 02:33N 36°48' E 026°06'9 9.3
2015-Jul-04 01:33N 36°45' E 025°55'10 9.8
2015-Jul-04 00:33N 36°42' E 025°44'1111.0
2015-Jul-03 23:33N 36°39' E 025°30'1211.3
2015-Jul-03 22:30N 36°36' E 025°16'1011.1
2015-Jul-03 21:33N 36°35' E 025°03'1111.3
2015-Jul-03 20:33N 36°33' E 024°49'44210.5
2015-Jul-02 02:25N 37°54' E 015°43'910.1
2015-Jul-02 01:34N 38°01' E 015°36'10 9.8
2015-Jul-02 00:33N 38°11' E 015°36'8 8.2
2015-Jul-01 23:33N 38°19' E 015°36'1111.2
2015-Jul-01 22:33N 38°19' E 015°22'1110.8
2015-Jul-01 21:33N 38°19' E 015°08'1010.3
2015-Jul-01 20:33N 38°20' E 014°55'1110.2
2015-Jul-01 19:30N 38°20' E 014°41'9 9.9
2015-Jul-01 18:33N 38°21' E 014°29'4410.4
2015-Jul-01 14:20N 38°25' E 013°33'810.2
2015-Jul-01 13:33N 38°25' E 013°23'1110.4
2015-Jul-01 12:31N 38°26' E 013°09'1010.5
2015-Jul-01 11:33N 38°27' E 012°56'1110.3
2015-Jul-01 10:32N 38°28' E 012°43'1110.4
2015-Jul-01 09:31N 38°28' E 012°30'1410.5
2015-Jul-01 08:09N 38°29' E 012°11'610.5
2015-Jul-01 07:33N 38°30' E 012°03'1010.3
2015-Jul-01 06:33N 38°31' E 011°50'1010.2
2015-Jul-01 05:33N 38°32' E 011°37'1010.5
2015-Jul-01 04:33N 38°32' E 011°24'1010.4
2015-Jul-01 03:33N 38°33' E 011°11'1010.5
2015-Jul-01 02:33N 38°34' E 010°57'1110.6
2015-Jul-01 01:33N 38°35' E 010°44'1110.7
2015-Jul-01 00:33N 38°36' E 010°30'1111.0
2015-Jun-30 23:33N 38°36' E 010°16'1111.2
2015-Jun-30 22:33N 38°37' E 010°02'1111.0
2015-Jun-30 21:33N 38°38' E 009°48'1110.9
2015-Jun-30 20:33N 38°39' E 009°34'1110.9
2015-Jun-30 19:34N 38°40' E 009°20'1110.8
2015-Jun-30 18:33N 38°41' E 009°06'1110.6
2015-Jun-30 17:33N 38°42' E 008°53'7 6.9
2015-Jun-30 16:33N 38°42' E 008°44'9 9.3
2015-Jun-30 15:33N 38°43' E 008°32'1111.1
2015-Jun-30 14:33N 38°44' E 008°18'1111.1
2015-Jun-30 13:33N 38°46' E 008°04'1111.0
2015-Jun-30 12:33N 38°47' E 007°50'1110.9
2015-Jun-30 11:33N 38°49' E 007°36'1110.8
2015-Jun-30 10:33N 38°50' E 007°22'12210.9
2015-Jun-29 23:25N 39°05' E 004°47'2211.0
2015-Jun-29 21:24N 39°08' E 004°18'1010.9
2015-Jun-29 20:30N 39°09' E 004°06'1010.7
2015-Jun-29 19:33N 39°10' E 003°53'1010.4
2015-Jun-29 18:33N 39°12' E 003°40'1010.4
2015-Jun-29 17:33N 39°13' E 003°27'1010.4
2015-Jun-29 16:33N 39°14' E 003°13'1110.6
2015-Jun-29 15:33N 39°17' E 002°60'1110.9
2015-Jun-29 14:33N 39°21' E 002°47'1010.5
2015-Jun-29 13:33N 39°30' E 002°40'4 3.3
2015-Jun-29 12:27N 39°34' E 002°38'0 0.0
2015-Jun-29 11:33N 39°34' E 002°38'0 0.0
2015-Jun-29 10:33N 39°34' E 002°38'0 0.0
2015-Jun-29 09:33N 39°34' E 002°38'0 0.0
2015-Jun-29 08:33N 39°34' E 002°38'0 0.3
2015-Jun-29 07:33N 39°34' E 002°38'0 0.2
2015-Jun-29 06:33N 39°34' E 002°38'0 0.4
2015-Jun-29 05:33N 39°34' E 002°38'0 0.0
2015-Jun-29 04:32N 39°34' E 002°38'0 0.0
2015-Jun-29 03:32N 39°34' E 002°38'0 0.0
2015-Jun-29 02:32N 39°34' E 002°38'0 0.0
2015-Jun-29 01:32N 39°34' E 002°38'0 0.0
2015-Jun-29 00:32N 39°34' E 002°38'0 0.0
2015-Jun-28 23:32N 39°34' E 002°38'0 0.0
2015-Jun-28 22:32N 39°34' E 002°38'0 0.0
2015-Jun-28 21:32N 39°34' E 002°38'0 0.0
2015-Jun-28 20:29N 39°34' E 002°38'0 0.0
2015-Jun-28 19:32N 39°34' E 002°38'0 0.0
2015-Jun-28 18:32N 39°34' E 002°38'0 0.0
2015-Jun-28 17:32N 39°34' E 002°38'0 0.0
2015-Jun-28 16:32N 39°34' E 002°38'0 0.0
2015-Jun-28 15:32N 39°34' E 002°38'0 0.0
2015-Jun-28 14:32N 39°34' E 002°38'0 0.0
2015-Jun-28 13:32N 39°34' E 002°38'0 0.0
2015-Jun-28 12:32N 39°34' E 002°38'0 0.0
2015-Jun-28 11:32N 39°34' E 002°38'0 0.0
2015-Jun-28 10:32N 39°34' E 002°38'0 0.0
2015-Jun-28 09:32N 39°34' E 002°38'0 0.0
2015-Jun-28 08:32N 39°34' E 002°38'0 0.0
2015-Jun-28 07:32N 39°34' E 002°38'0 0.0
2015-Jun-28 06:32N 39°34' E 002°38'0 0.0
2015-Jun-28 05:32N 39°34' E 002°38'0 0.0
2015-Jun-28 04:32N 39°34' E 002°38'0 0.0
2015-Jun-28 03:32N 39°34' E 002°38'0 0.0
2015-Jun-28 02:32N 39°34' E 002°38'0 0.0
2015-Jun-28 01:32N 39°34' E 002°38'0 0.0
2015-Jun-28 00:29N 39°34' E 002°38'0 0.0
2015-Jun-27 23:29N 39°34' E 002°38'0 0.0
2015-Jun-27 22:32N 39°34' E 002°38'0 0.0
2015-Jun-27 21:32N 39°34' E 002°38'0 0.0
2015-Jun-27 20:32N 39°34' E 002°38'0 0.0
2015-Jun-27 19:32N 39°34' E 002°38'0 0.0
2015-Jun-27 18:32N 39°34' E 002°38'0 0.0
2015-Jun-27 17:32N 39°34' E 002°38'0 0.0
2015-Jun-27 16:32N 39°34' E 002°38'0 0.0
2015-Jun-27 15:32N 39°34' E 002°38'0 0.0
2015-Jun-27 14:32N 39°34' E 002°38'0 0.0
2015-Jun-27 13:29N 39°34' E 002°38'0 0.0
2015-Jun-27 11:32N 39°34' E 002°38'0 0.0
2015-Jun-27 10:32N 39°34' E 002°38'0 0.0
2015-Jun-27 09:29N 39°34' E 002°38'0 0.0
2015-Jun-27 08:32N 39°34' E 002°38'0 0.0
2015-Jun-27 07:32N 39°34' E 002°38'0 0.0
2015-Jun-27 06:32N 39°34' E 002°38'0 0.0
2015-Jun-27 05:32N 39°34' E 002°38'0 0.0
2015-Jun-27 04:32N 39°34' E 002°38'0 0.0
2015-Jun-27 03:32N 39°34' E 002°38'0 0.0
2015-Jun-27 02:32N 39°34' E 002°38'0 0.0
2015-Jun-27 01:32N 39°34' E 002°38'0 0.0
2015-Jun-27 00:32N 39°34' E 002°38'0 0.0
2015-Jun-26 23:32N 39°34' E 002°38'0 0.0
2015-Jun-26 22:29N 39°34' E 002°38'0 0.0
2015-Jun-26 21:29N 39°34' E 002°38'0 0.0
2015-Jun-26 20:32N 39°34' E 002°38'0 0.0
2015-Jun-26 19:32N 39°34' E 002°38'0 0.0
2015-Jun-26 18:32N 39°34' E 002°38'0 0.0
2015-Jun-26 17:29N 39°34' E 002°38'0 0.0
2015-Jun-26 16:32N 39°34' E 002°38'0 0.0
2015-Jun-26 15:32N 39°34' E 002°38'0 0.0
2015-Jun-26 14:32N 39°34' E 002°38'0 0.0
2015-Jun-26 13:32N 39°34' E 002°38'0 0.0
2015-Jun-26 12:32N 39°34' E 002°38'0 0.0
2015-Jun-26 11:32N 39°34' E 002°38'0 0.0
2015-Jun-26 10:32N 39°34' E 002°38'0 0.0
2015-Jun-26 09:32N 39°34' E 002°38'0 0.0
2015-Jun-26 08:32N 39°34' E 002°38'0 0.0
2015-Jun-26 07:32N 39°34' E 002°38'0 0.0
2015-Jun-26 06:29N 39°34' E 002°38'0 0.0
2015-Jun-26 05:32N 39°34' E 002°38'0 0.0
2015-Jun-26 04:32N 39°34' E 002°38'0 0.0
2015-Jun-26 03:32N 39°34' E 002°38'0 0.0
2015-Jun-26 02:32N 39°34' E 002°38'0 0.0
2015-Jun-26 01:32N 39°34' E 002°38'0 0.0
2015-Jun-26 00:32N 39°34' E 002°38'0 0.0
2015-Jun-25 23:31N 39°34' E 002°38'0 0.0
2015-Jun-25 22:20N 39°34' E 002°38'0 0.0
2015-Jun-25 21:31N 39°34' E 002°38'0 0.0
2015-Jun-25 20:31N 39°34' E 002°38'0 0.0
2015-Jun-25 19:31N 39°34' E 002°38'0 0.0
2015-Jun-25 18:31N 39°34' E 002°38'0 0.0
2015-Jun-25 17:31N 39°34' E 002°38'0 0.0
2015-Jun-25 16:31N 39°34' E 002°38'0 0.0
2015-Jun-25 15:31N 39°34' E 002°38'1 1.4
2015-Jun-25 14:33N 39°32' E 002°38'9 7.5
2015-Jun-25 13:22N 39°28' E 002°28'4 0.6
2015-Jun-25 07:20N 39°31' E 002°25'6 8.0
2015-Jun-25 06:34N 39°28' E 002°32'8 7.8
2015-Jun-25 05:33N 39°34' E 002°38'0 0.0
2015-Jun-25 04:33N 39°34' E 002°38'0 0.0
2015-Jun-25 03:33N 39°34' E 002°38'0 0.0
2015-Jun-25 02:33N 39°34' E 002°38'0 0.0
2015-Jun-25 01:33N 39°34' E 002°38'0 0.0
2015-Jun-25 00:33N 39°34' E 002°38'0 0.0
2015-Jun-24 23:33N 39°34' E 002°38'0 0.0
2015-Jun-24 22:33N 39°34' E 002°38'0 0.0
2015-Jun-24 21:33N 39°34' E 002°38'0 0.0
2015-Jun-24 20:33N 39°34' E 002°38'0 0.0
2015-Jun-24 19:33N 39°34' E 002°38'0 0.0
2015-Jun-24 18:33N 39°34' E 002°38'0 0.0
2015-Jun-24 17:33N 39°34' E 002°38'0 0.0
2015-Jun-24 16:33N 39°34' E 002°38'0 0.0
2015-Jun-24 15:33N 39°34' E 002°38'0 0.0
2015-Jun-24 14:33N 39°34' E 002°38'0 0.0
2015-Jun-24 13:33N 39°34' E 002°38'0 0.0
2015-Jun-24 12:33N 39°34' E 002°38'0 0.0
2015-Jun-24 11:33N 39°34' E 002°38'0 0.0
2015-Jun-24 10:33N 39°34' E 002°38'0 0.0
2015-Jun-24 09:33N 39°34' E 002°38'0 0.0
2015-Jun-24 08:33N 39°34' E 002°38'0 0.0
2015-Jun-24 07:33N 39°34' E 002°38'0 0.0
2015-Jun-24 06:33N 39°34' E 002°38'0 0.0
2015-Jun-24 05:33N 39°34' E 002°38'0 0.0
2015-Jun-24 04:33N 39°34' E 002°38'0 0.0
2015-Jun-24 03:33N 39°34' E 002°38'  
Track history (hours):
 
Tides and Currents Weather Stations Pressure Air Temp Water Temp Dewpoint Dewpoint Depression Visibility Wind Speed Wind Dir Waves Ship Positions

Erica Xii

Last reported at 2015-Jul-04 03:26 UTC. Time now 2015-Jul-06 15:36 UTC.
Position N 36°50' E 026°17'.

Length 53 m; draft 4.8 m.

Type: Sailing vessel. MMSI: 310570000.

Date/timePositionNaut miles runAvg speedWind from/ knotsBaromVisibWave heightAir tempDewpointWater temp
2015-Jul-04 03:26N 36°50' E 026°17'910.5
2015-Jul-04 02:33N 36°48' E 026°06'9 9.3
2015-Jul-04 01:33N 36°45' E 025°55'10 9.8
2015-Jul-04 00:33N 36°42' E 025°44'1111.0
2015-Jul-03 23:33N 36°39' E 025°30'1211.3
2015-Jul-03 22:30N 36°36' E 025°16'1011.1
2015-Jul-03 21:33N 36°35' E 025°03'1111.3
2015-Jul-03 20:33N 36°33' E 024°49'44210.5
2015-Jul-02 02:25N 37°54' E 015°43'910.1
2015-Jul-02 01:34N 38°01' E 015°36'10 9.8
2015-Jul-02 00:33N 38°11' E 015°36'8 8.2
2015-Jul-01 23:33N 38°19' E 015°36'1111.2
2015-Jul-01 22:33N 38°19' E 015°22'1110.8
2015-Jul-01 21:33N 38°19' E 015°08'1010.3
2015-Jul-01 20:33N 38°20' E 014°55'1110.2
2015-Jul-01 19:30N 38°20' E 014°41'9 9.9
2015-Jul-01 18:33N 38°21' E 014°29'4410.4
2015-Jul-01 14:20N 38°25' E 013°33'810.2
2015-Jul-01 13:33N 38°25' E 013°23'1110.4
2015-Jul-01 12:31N 38°26' E 013°09'1010.5
2015-Jul-01 11:33N 38°27' E 012°56'1110.3
2015-Jul-01 10:32N 38°28' E 012°43'1110.4
2015-Jul-01 09:31N 38°28' E 012°30'1410.5
2015-Jul-01 08:09N 38°29' E 012°11'610.5
2015-Jul-01 07:33N 38°30' E 012°03'1010.3
2015-Jul-01 06:33N 38°31' E 011°50'1010.2
2015-Jul-01 05:33N 38°32' E 011°37'1010.5
2015-Jul-01 04:33N 38°32' E 011°24'1010.4
2015-Jul-01 03:33N 38°33' E 011°11'1010.5
2015-Jul-01 02:33N 38°34' E 010°57'1110.6
2015-Jul-01 01:33N 38°35' E 010°44'1110.7
2015-Jul-01 00:33N 38°36' E 010°30'1111.0
2015-Jun-30 23:33N 38°36' E 010°16'1111.2
2015-Jun-30 22:33N 38°37' E 010°02'1111.0
2015-Jun-30 21:33N 38°38' E 009°48'1110.9
2015-Jun-30 20:33N 38°39' E 009°34'1110.9
2015-Jun-30 19:34N 38°40' E 009°20'1110.8
2015-Jun-30 18:33N 38°41' E 009°06'1110.6
2015-Jun-30 17:33N 38°42' E 008°53'7 6.9
2015-Jun-30 16:33N 38°42' E 008°44'9 9.3
2015-Jun-30 15:33N 38°43' E 008°32'1111.1
2015-Jun-30 14:33N 38°44' E 008°18'1111.1
2015-Jun-30 13:33N 38°46' E 008°04'1111.0
2015-Jun-30 12:33N 38°47' E 007°50'1110.9
2015-Jun-30 11:33N 38°49' E 007°36'1110.8
2015-Jun-30 10:33N 38°50' E 007°22'12210.9
2015-Jun-29 23:25N 39°05' E 004°47'2211.0
2015-Jun-29 21:24N 39°08' E 004°18'1010.9
2015-Jun-29 20:30N 39°09' E 004°06'1010.7
2015-Jun-29 19:33N 39°10' E 003°53'1010.4
2015-Jun-29 18:33N 39°12' E 003°40'1010.4
2015-Jun-29 17:33N 39°13' E 003°27'1010.4
2015-Jun-29 16:33N 39°14' E 003°13'1110.6
2015-Jun-29 15:33N 39°17' E 002°60'1110.9
2015-Jun-29 14:33N 39°21' E 002°47'1010.5
2015-Jun-29 13:33N 39°30' E 002°40'4 3.3
2015-Jun-29 12:27N 39°34' E 002°38'0 0.0
2015-Jun-29 11:33N 39°34' E 002°38'0 0.0
2015-Jun-29 10:33N 39°34' E 002°38'0 0.0
2015-Jun-29 09:33N 39°34' E 002°38'0 0.0
2015-Jun-29 08:33N 39°34' E 002°38'0 0.3
2015-Jun-29 07:33N 39°34' E 002°38'0 0.2
2015-Jun-29 06:33N 39°34' E 002°38'0 0.4
2015-Jun-29 05:33N 39°34' E 002°38'0 0.0
2015-Jun-29 04:32N 39°34' E 002°38'0 0.0
2015-Jun-29 03:32N 39°34' E 002°38'0 0.0
2015-Jun-29 02:32N 39°34' E 002°38'0 0.0
2015-Jun-29 01:32N 39°34' E 002°38'0 0.0
2015-Jun-29 00:32N 39°34' E 002°38'0 0.0
2015-Jun-28 23:32N 39°34' E 002°38'0 0.0
2015-Jun-28 22:32N 39°34' E 002°38'0 0.0
2015-Jun-28 21:32N 39°34' E 002°38'0 0.0
2015-Jun-28 20:29N 39°34' E 002°38'0 0.0
2015-Jun-28 19:32N 39°34' E 002°38'0 0.0
2015-Jun-28 18:32N 39°34' E 002°38'0 0.0
2015-Jun-28 17:32N 39°34' E 002°38'0 0.0
2015-Jun-28 16:32N 39°34' E 002°38'0 0.0
2015-Jun-28 15:32N 39°34' E 002°38'0 0.0
2015-Jun-28 14:32N 39°34' E 002°38'0 0.0
2015-Jun-28 13:32N 39°34' E 002°38'0 0.0
2015-Jun-28 12:32N 39°34' E 002°38'0 0.0
2015-Jun-28 11:32N 39°34' E 002°38'0 0.0
2015-Jun-28 10:32N 39°34' E 002°38'0 0.0
2015-Jun-28 09:32N 39°34' E 002°38'0 0.0
2015-Jun-28 08:32N 39°34' E 002°38'0 0.0
2015-Jun-28 07:32N 39°34' E 002°38'0 0.0
2015-Jun-28 06:32N 39°34' E 002°38'0 0.0
2015-Jun-28 05:32N 39°34' E 002°38'0 0.0
2015-Jun-28 04:32N 39°34' E 002°38'0 0.0
2015-Jun-28 03:32N 39°34' E 002°38'0 0.0
2015-Jun-28 02:32N 39°34' E 002°38'0 0.0
2015-Jun-28 01:32N 39°34' E 002°38'0 0.0
2015-Jun-28 00:29N 39°34' E 002°38'0 0.0
2015-Jun-27 23:29N 39°34' E 002°38'0 0.0
2015-Jun-27 22:32N 39°34' E 002°38'0 0.0
2015-Jun-27 21:32N 39°34' E 002°38'0 0.0
2015-Jun-27 20:32N 39°34' E 002°38'0 0.0
2015-Jun-27 19:32N 39°34' E 002°38'0 0.0
2015-Jun-27 18:32N 39°34' E 002°38'0 0.0
2015-Jun-27 17:32N 39°34' E 002°38'0 0.0
2015-Jun-27 16:32N 39°34' E 002°38'0 0.0
2015-Jun-27 15:32N 39°34' E 002°38'0 0.0
2015-Jun-27 14:32N 39°34' E 002°38'0 0.0
2015-Jun-27 13:29N 39°34' E 002°38'0 0.0
2015-Jun-27 11:32N 39°34' E 002°38'0 0.0
2015-Jun-27 10:32N 39°34' E 002°38'0 0.0
2015-Jun-27 09:29N 39°34' E 002°38'0 0.0
2015-Jun-27 08:32N 39°34' E 002°38'0 0.0
2015-Jun-27 07:32N 39°34' E 002°38'0 0.0
2015-Jun-27 06:32N 39°34' E 002°38'0 0.0
2015-Jun-27 05:32N 39°34' E 002°38'0 0.0
2015-Jun-27 04:32N 39°34' E 002°38'0 0.0
2015-Jun-27 03:32N 39°34' E 002°38'0 0.0
2015-Jun-27 02:32N 39°34' E 002°38'0 0.0
2015-Jun-27 01:32N 39°34' E 002°38'0 0.0
2015-Jun-27 00:32N 39°34' E 002°38'0 0.0
2015-Jun-26 23:32N 39°34' E 002°38'0 0.0
2015-Jun-26 22:29N 39°34' E 002°38'0 0.0
2015-Jun-26 21:29N 39°34' E 002°38'0 0.0
2015-Jun-26 20:32N 39°34' E 002°38'0 0.0
2015-Jun-26 19:32N 39°34' E 002°38'0 0.0
2015-Jun-26 18:32N 39°34' E 002°38'0 0.0
2015-Jun-26 17:29N 39°34' E 002°38'0 0.0
2015-Jun-26 16:32N 39°34' E 002°38'0 0.0
2015-Jun-26 15:32N 39°34' E 002°38'0 0.0
2015-Jun-26 14:32N 39°34' E 002°38'0 0.0
2015-Jun-26 13:32N 39°34' E 002°38'0 0.0
2015-Jun-26 12:32N 39°34' E 002°38'0 0.0
2015-Jun-26 11:32N 39°34' E 002°38'0 0.0
2015-Jun-26 10:32N 39°34' E 002°38'0 0.0
2015-Jun-26 09:32N 39°34' E 002°38'0 0.0
2015-Jun-26 08:32N 39°34' E 002°38'0 0.0
2015-Jun-26 07:32N 39°34' E 002°38'0 0.0
2015-Jun-26 06:29N 39°34' E 002°38'0 0.0
2015-Jun-26 05:32N 39°34' E 002°38'0 0.0
2015-Jun-26 04:32N 39°34' E 002°38'0 0.0
2015-Jun-26 03:32N 39°34' E 002°38'0 0.0
2015-Jun-26 02:32N 39°34' E 002°38'0 0.0
2015-Jun-26 01:32N 39°34' E 002°38'0 0.0
2015-Jun-26 00:32N 39°34' E 002°38'0 0.0
2015-Jun-25 23:31N 39°34' E 002°38'0 0.0
2015-Jun-25 22:20N 39°34' E 002°38'0 0.0
2015-Jun-25 21:31N 39°34' E 002°38'0 0.0
2015-Jun-25 20:31N 39°34' E 002°38'0 0.0
2015-Jun-25 19:31N 39°34' E 002°38'0 0.0
2015-Jun-25 18:31N 39°34' E 002°38'0 0.0
2015-Jun-25 17:31N 39°34' E 002°38'0 0.0
2015-Jun-25 16:31N 39°34' E 002°38'0 0.0
2015-Jun-25 15:31N 39°34' E 002°38'1 1.4
2015-Jun-25 14:33N 39°32' E 002°38'9 7.5
2015-Jun-25 13:22N 39°28' E 002°28'4 0.6
2015-Jun-25 07:20N 39°31' E 002°25'6 8.0
2015-Jun-25 06:34N 39°28' E 002°32'8 7.8
2015-Jun-25 05:33N 39°34' E 002°38'0 0.0
2015-Jun-25 04:33N 39°34' E 002°38'0 0.0
2015-Jun-25 03:33N 39°34' E 002°38'0 0.0
2015-Jun-25 02:33N 39°34' E 002°38'0 0.0
2015-Jun-25 01:33N 39°34' E 002°38'0 0.0
2015-Jun-25 00:33N 39°34' E 002°38'0 0.0
2015-Jun-24 23:33N 39°34' E 002°38'0 0.0
2015-Jun-24 22:33N 39°34' E 002°38'0 0.0
2015-Jun-24 21:33N 39°34' E 002°38'0 0.0
2015-Jun-24 20:33N 39°34' E 002°38'0 0.0
2015-Jun-24 19:33N 39°34' E 002°38'0 0.0
2015-Jun-24 18:33N 39°34' E 002°38'0 0.0
2015-Jun-24 17:33N 39°34' E 002°38'0 0.0
2015-Jun-24 16:33N 39°34' E 002°38'0 0.0
2015-Jun-24 15:33N 39°34' E 002°38'0 0.0
2015-Jun-24 14:33N 39°34' E 002°38'0 0.0
2015-Jun-24 13:33N 39°34' E 002°38'0 0.0
2015-Jun-24 12:33N 39°34' E 002°38'0 0.0
2015-Jun-24 11:33N 39°34' E 002°38'0 0.0
2015-Jun-24 10:33N 39°34' E 002°38'0 0.0
2015-Jun-24 09:33N 39°34' E 002°38'0 0.0
2015-Jun-24 08:33N 39°34' E 002°38'0 0.0
2015-Jun-24 07:33N 39°34' E 002°38'0 0.0
2015-Jun-24 06:33N 39°34' E 002°38'0 0.0
2015-Jun-24 05:33N 39°34' E 002°38'0 0.0
2015-Jun-24 04:33N 39°34' E 002°38'0 0.0
2015-Jun-24 03:33N 39°34' E 002°38'  

Dump ship's entire track history